sensor_id;sensor_type;location;lat;lon;timestamp;pressure;altitude;pressure_sealevel;temperature;humidity
74573;BME280;63071;51.526;-0.134;2022-12-13T00:00:40;100517.50;;;22.41;25.74
74573;BME280;63071;51.526;-0.134;2022-12-13T00:03:06;100524.34;;;22.42;25.01
74573;BME280;63071;51.526;-0.134;2022-12-13T00:05:32;100524.34;;;22.42;25.22
74573;BME280;63071;51.526;-0.134;2022-12-13T00:08:00;100529.66;;;22.42;24.94
74573;BME280;63071;51.526;-0.134;2022-12-13T00:10:27;100525.84;;;22.39;25.00
74573;BME280;63071;51.526;-0.134;2022-12-13T00:12:52;100530.00;;;22.37;25.23
74573;BME280;63071;51.526;-0.134;2022-12-13T00:15:18;100539.50;;;22.38;25.20
74573;BME280;63071;51.526;-0.134;2022-12-13T00:17:43;100543.72;;;22.39;25.52
74573;BME280;63071;51.526;-0.134;2022-12-13T00:20:10;100530.78;;;22.37;25.15
74573;BME280;63071;51.526;-0.134;2022-12-13T00:22:35;100533.44;;;22.37;24.97
74573;BME280;63071;51.526;-0.134;2022-12-13T00:25:01;100527.00;;;22.38;25.51
74573;BME280;63071;51.526;-0.134;2022-12-13T00:27:26;100536.13;;;22.41;24.94
74573;BME280;63071;51.526;-0.134;2022-12-13T00:29:52;100533.06;;;22.39;25.19
74573;BME280;63071;51.526;-0.134;2022-12-13T00:32:17;100537.25;;;22.36;25.02
74573;BME280;63071;51.526;-0.134;2022-12-13T00:34:43;100533.78;;;22.36;25.29
74573;BME280;63071;51.526;-0.134;2022-12-13T00:37:08;100540.66;;;22.37;25.58
74573;BME280;63071;51.526;-0.134;2022-12-13T00:39:34;100530.78;;;22.37;25.65
74573;BME280;63071;51.526;-0.134;2022-12-13T00:41:59;100534.59;;;22.36;24.91
74573;BME280;63071;51.526;-0.134;2022-12-13T00:44:25;100532.28;;;22.35;25.03
74573;BME280;63071;51.526;-0.134;2022-12-13T00:46:51;100525.41;;;22.34;25.44
74573;BME280;63071;51.526;-0.134;2022-12-13T00:49:17;100517.38;;;22.30;25.42
74573;BME280;63071;51.526;-0.134;2022-12-13T00:51:43;100515.16;;;22.36;24.80
74573;BME280;63071;51.526;-0.134;2022-12-13T00:54:09;100525.41;;;22.34;25.11
74573;BME280;63071;51.526;-0.134;2022-12-13T00:56:36;100523.94;;;22.36;24.96
74573;BME280;63071;51.526;-0.134;2022-12-13T00:59:02;100509.44;;;22.34;25.38
74573;BME280;63071;51.526;-0.134;2022-12-13T01:01:31;100512.50;;;22.36;25.43
74573;BME280;63071;51.526;-0.134;2022-12-13T01:04:00;100504.91;;;22.38;25.41
74573;BME280;63071;51.526;-0.134;2022-12-13T01:06:39;100490.47;;;22.39;25.08
74573;BME280;63071;51.526;-0.134;2022-12-13T01:09:15;100496.16;;;22.37;25.37
74573;BME280;63071;51.526;-0.134;2022-12-13T01:11:42;100489.31;;;22.36;25.29
74573;BME280;63071;51.526;-0.134;2022-12-13T01:14:07;100482.84;;;22.37;25.13
74573;BME280;63071;51.526;-0.134;2022-12-13T01:16:32;100486.66;;;22.36;24.61
74573;BME280;63071;51.526;-0.134;2022-12-13T01:18:58;100477.13;;;22.35;24.77
74573;BME280;63071;51.526;-0.134;2022-12-13T01:21:23;100479.41;;;22.37;24.86
74573;BME280;63071;51.526;-0.134;2022-12-13T01:23:49;100487.41;;;22.37;24.88
74573;BME280;63071;51.526;-0.134;2022-12-13T01:26:18;100485.88;;;22.36;25.26
74573;BME280;63071;51.526;-0.134;2022-12-13T01:28:45;100487.41;;;22.37;24.44
74573;BME280;63071;51.526;-0.134;2022-12-13T01:31:14;100480.94;;;22.34;24.71
74573;BME280;63071;51.526;-0.134;2022-12-13T01:33:41;100490.06;;;22.37;24.60
74573;BME280;63071;51.526;-0.134;2022-12-13T01:36:10;100480.94;;;22.38;25.34
74573;BME280;63071;51.526;-0.134;2022-12-13T01:38:36;100480.19;;;22.37;24.54
74573;BME280;63071;51.526;-0.134;2022-12-13T01:41:02;100484.75;;;22.37;24.51
74573;BME280;63071;51.526;-0.134;2022-12-13T01:43:52;100469.13;;;22.35;24.62
74573;BME280;63071;51.526;-0.134;2022-12-13T01:46:19;100474.47;;;22.35;24.65
74573;BME280;63071;51.526;-0.134;2022-12-13T01:49:14;100476.75;;;22.37;24.99
74573;BME280;63071;51.526;-0.134;2022-12-13T01:51:46;100480.94;;;22.34;25.16
74573;BME280;63071;51.526;-0.134;2022-12-13T01:54:18;100487.38;;;22.33;25.15
74573;BME280;63071;51.526;-0.134;2022-12-13T01:56:51;100487.75;;;22.32;25.13
74573;BME280;63071;51.526;-0.134;2022-12-13T01:59:19;100480.94;;;22.34;25.03
74573;BME280;63071;51.526;-0.134;2022-12-13T02:01:47;100481.69;;;22.35;24.67
74573;BME280;63071;51.526;-0.134;2022-12-13T02:04:19;100488.91;;;22.34;24.65
74573;BME280;63071;51.526;-0.134;2022-12-13T02:06:48;100489.69;;;22.35;24.51
74573;BME280;63071;51.526;-0.134;2022-12-13T02:09:14;100486.97;;;22.31;24.93
74573;BME280;63071;51.526;-0.134;2022-12-13T02:11:42;100485.88;;;22.36;24.72
74573;BME280;63071;51.526;-0.134;2022-12-13T02:14:09;100489.69;;;22.35;24.79
74573;BME280;63071;51.526;-0.134;2022-12-13T02:35:48;100489.66;;;22.31;24.62
74573;BME280;63071;51.526;-0.134;2022-12-13T02:41:26;100490.41;;;22.32;24.21
74573;BME280;63071;51.526;-0.134;2022-12-13T02:46:34;100488.88;;;22.31;24.28
74573;BME280;63071;51.526;-0.134;2022-12-13T02:49:02;100489.66;;;22.31;24.39
74573;BME280;63071;51.526;-0.134;2022-12-13T02:51:30;100487.34;;;22.30;24.58
74573;BME280;63071;51.526;-0.134;2022-12-13T02:53:56;100490.41;;;22.32;24.11
74573;BME280;63071;51.526;-0.134;2022-12-13T02:56:21;100486.22;;;22.31;24.59
74573;BME280;63071;51.526;-0.134;2022-12-13T02:58:52;100489.25;;;22.29;24.73
74573;BME280;63071;51.526;-0.134;2022-12-13T03:01:31;100494.56;;;22.29;24.20
74573;BME280;63071;51.526;-0.134;2022-12-13T03:04:18;100490.38;;;22.28;24.70
74573;BME280;63071;51.526;-0.134;2022-12-13T03:06:51;100489.63;;;22.28;24.80
74573;BME280;63071;51.526;-0.134;2022-12-13T03:17:59;100498.75;;;22.27;24.09
74573;BME280;63071;51.526;-0.134;2022-12-13T03:20:28;100499.50;;;22.27;24.17
74573;BME280;63071;51.526;-0.134;2022-12-13T03:22:55;100496.03;;;22.23;24.48
74573;BME280;63071;51.526;-0.134;2022-12-13T03:25:24;100504.81;;;22.27;24.67
74573;BME280;63071;51.526;-0.134;2022-12-13T03:27:50;100512.81;;;22.27;24.18
74573;BME280;63071;51.526;-0.134;2022-12-13T03:30:16;100502.53;;;22.26;24.38
74573;BME280;63071;51.526;-0.134;2022-12-13T03:32:41;100506.34;;;22.28;24.39
74573;BME280;63071;51.526;-0.134;2022-12-13T03:35:07;100507.13;;;22.29;24.61
74573;BME280;63071;51.526;-0.134;2022-12-13T03:37:33;100512.06;;;22.27;24.78
74573;BME280;63071;51.526;-0.134;2022-12-13T03:39:59;100497.22;;;22.26;24.55
74573;BME280;63071;51.526;-0.134;2022-12-13T03:42:24;100507.50;;;22.27;24.58
74573;BME280;63071;51.526;-0.134;2022-12-13T03:44:50;100501.81;;;22.29;24.71
74573;BME280;63071;51.526;-0.134;2022-12-13T03:47:16;100494.94;;;22.28;24.45
74573;BME280;63071;51.526;-0.134;2022-12-13T03:49:41;100501.78;;;22.25;24.51
74573;BME280;63071;51.526;-0.134;2022-12-13T03:52:07;100500.63;;;22.26;24.47
74573;BME280;63071;51.526;-0.134;2022-12-13T03:54:32;100491.88;;;22.26;24.69
74573;BME280;63071;51.526;-0.134;2022-12-13T03:56:58;100489.97;;;22.26;24.22
74573;BME280;63071;51.526;-0.134;2022-12-13T03:59:24;100484.25;;;22.24;24.01
74573;BME280;63071;51.526;-0.134;2022-12-13T04:01:49;100491.16;;;22.29;24.27
74573;BME280;63071;51.526;-0.134;2022-12-13T04:04:15;100485.03;;;22.28;23.93
74573;BME280;63071;51.526;-0.134;2022-12-13T04:06:40;100490.38;;;22.28;24.18
74573;BME280;63071;51.526;-0.134;2022-12-13T04:09:06;100480.50;;;22.29;23.81
74573;BME280;63071;51.526;-0.134;2022-12-13T04:11:31;100483.53;;;22.27;23.79
74573;BME280;63071;51.526;-0.134;2022-12-13T04:14:15;100475.50;;;22.24;24.11
74573;BME280;63071;51.526;-0.134;2022-12-13T04:16:41;100473.25;;;22.26;23.98
74573;BME280;63071;51.526;-0.134;2022-12-13T04:19:06;100477.44;;;22.27;23.98
74573;BME280;63071;51.526;-0.134;2022-12-13T04:21:31;100472.13;;;22.27;23.86
74573;BME280;63071;51.526;-0.134;2022-12-13T04:23:57;100461.41;;;22.23;23.87
74573;BME280;63071;51.526;-0.134;2022-12-13T04:26:22;100463.34;;;22.26;24.55
74573;BME280;63071;51.526;-0.134;2022-12-13T04:28:48;100465.63;;;22.24;24.12
74573;BME280;63071;51.526;-0.134;2022-12-13T04:31:13;100462.19;;;22.24;24.25
74573;BME280;63071;51.526;-0.134;2022-12-13T04:33:39;100454.22;;;22.24;24.32
74573;BME280;63071;51.526;-0.134;2022-12-13T04:36:04;100450.44;;;22.25;23.77
74573;BME280;63071;51.526;-0.134;2022-12-13T04:38:30;100454.97;;;22.24;24.07
74573;BME280;63071;51.526;-0.134;2022-12-13T04:41:14;100451.56;;;22.24;24.47
74573;BME280;63071;51.526;-0.134;2022-12-13T04:43:40;100456.09;;;22.23;24.34
74573;BME280;63071;51.526;-0.134;2022-12-13T04:46:05;100454.22;;;22.24;23.68
74573;BME280;63071;51.526;-0.134;2022-12-13T04:48:31;100455.34;;;22.23;23.85
74573;BME280;63071;51.526;-0.134;2022-12-13T04:50:58;100457.59;;;22.20;24.00
74573;BME280;63071;51.526;-0.134;2022-12-13T04:53:24;100458.00;;;22.23;23.64
74573;BME280;63071;51.526;-0.134;2022-12-13T04:55:49;100461.41;;;22.23;24.20
74573;BME280;63071;51.526;-0.134;2022-12-13T04:58:15;100452.28;;;22.20;24.01
74573;BME280;63071;51.526;-0.134;2022-12-13T05:00:40;100450.75;;;22.23;24.23
74573;BME280;63071;51.526;-0.134;2022-12-13T05:03:06;100455.34;;;22.23;24.10
74573;BME280;63071;51.526;-0.134;2022-12-13T05:05:32;100452.66;;;22.23;24.09
74573;BME280;63071;51.526;-0.134;2022-12-13T05:07:57;100448.81;;;22.20;23.56
74573;BME280;63071;51.526;-0.134;2022-12-13T05:10:23;100453.78;;;22.21;23.91
74573;BME280;63071;51.526;-0.134;2022-12-13T05:12:48;100458.34;;;22.21;24.28
74573;BME280;63071;51.526;-0.134;2022-12-13T05:15:13;100456.06;;;22.19;24.17
74573;BME280;63071;51.526;-0.134;2022-12-13T05:17:39;100453.78;;;22.21;24.24
74573;BME280;63071;51.526;-0.134;2022-12-13T05:20:05;100455.69;;;22.21;23.99
74573;BME280;63071;51.526;-0.134;2022-12-13T05:22:30;100448.47;;;22.21;24.11
74573;BME280;63071;51.526;-0.134;2022-12-13T05:24:56;100451.88;;;22.22;23.92
74573;BME280;63071;51.526;-0.134;2022-12-13T05:27:21;100443.50;;;22.20;23.96
74573;BME280;63071;51.526;-0.134;2022-12-13T05:29:46;100448.06;;;22.19;23.75
74573;BME280;63071;51.526;-0.134;2022-12-13T05:32:12;100449.22;;;22.18;24.50
74573;BME280;63071;51.526;-0.134;2022-12-13T05:34:37;100445.00;;;22.17;24.41
74573;BME280;63071;51.526;-0.134;2022-12-13T05:37:03;100444.66;;;22.19;23.86
74573;BME280;63071;51.526;-0.134;2022-12-13T05:39:28;100443.09;;;22.18;24.10
74573;BME280;63071;51.526;-0.134;2022-12-13T05:41:56;100440.84;;;22.20;23.57
74573;BME280;63071;51.526;-0.134;2022-12-13T05:44:22;100449.97;;;22.19;23.69
74573;BME280;63071;51.526;-0.134;2022-12-13T05:46:48;100447.69;;;22.17;23.77
74573;BME280;63071;51.526;-0.134;2022-12-13T05:49:14;100452.59;;;22.15;24.30
74573;BME280;63071;51.526;-0.134;2022-12-13T05:51:39;100448.44;;;22.14;24.31
74573;BME280;63071;51.526;-0.134;2022-12-13T05:54:04;100452.59;;;22.15;23.73
74573;BME280;63071;51.526;-0.134;2022-12-13T05:56:30;100450.69;;;22.16;23.58
74573;BME280;63071;51.526;-0.134;2022-12-13T05:58:55;100456.81;;;22.16;24.35
74573;BME280;63071;51.526;-0.134;2022-12-13T06:01:21;100451.09;;;22.18;24.18
74573;BME280;63071;51.526;-0.134;2022-12-13T06:03:46;100448.16;;;22.30;23.93
74573;BME280;63071;51.526;-0.134;2022-12-13T06:06:12;100441.66;;;22.24;23.68
74573;BME280;63071;51.526;-0.134;2022-12-13T06:08:38;100445.44;;;22.23;23.91
74573;BME280;63071;51.526;-0.134;2022-12-13T06:11:05;100441.63;;;22.20;23.79
74573;BME280;63071;51.526;-0.134;2022-12-13T06:13:32;100456.09;;;22.23;23.60
74573;BME280;63071;51.526;-0.134;2022-12-13T06:16:04;100448.06;;;22.19;24.12
74573;BME280;63071;51.526;-0.134;2022-12-13T06:18:33;100450.38;;;22.21;23.78
74573;BME280;63071;51.526;-0.134;2022-12-13T06:21:01;100446.94;;;22.20;24.08
74573;BME280;63071;51.526;-0.134;2022-12-13T06:23:29;100449.22;;;22.22;23.44
74573;BME280;63071;51.526;-0.134;2022-12-13T06:25:55;100453.41;;;22.19;24.11
74573;BME280;63071;51.526;-0.134;2022-12-13T06:28:20;100463.66;;;22.17;23.85
74573;BME280;63071;51.526;-0.134;2022-12-13T06:30:45;100465.56;;;22.17;23.78
74573;BME280;63071;51.526;-0.134;2022-12-13T06:33:11;100465.19;;;22.18;23.20
74573;BME280;63071;51.526;-0.134;2022-12-13T06:35:37;100463.25;;;22.15;23.49
74573;BME280;63071;51.526;-0.134;2022-12-13T06:38:02;100458.31;;;22.17;23.93
74573;BME280;63071;51.526;-0.134;2022-12-13T06:40:31;100470.47;;;22.15;23.88
74573;BME280;63071;51.526;-0.134;2022-12-13T06:42:58;100468.19;;;22.13;24.03
74573;BME280;63071;51.526;-0.134;2022-12-13T06:45:24;100454.44;;;22.08;23.83
74573;BME280;63071;51.526;-0.134;2022-12-13T06:47:49;100468.19;;;22.13;23.70
74573;BME280;63071;51.526;-0.134;2022-12-13T06:50:15;100465.91;;;22.15;23.47
74573;BME280;63071;51.526;-0.134;2022-12-13T06:52:40;100462.50;;;22.15;23.91
74573;BME280;63071;51.526;-0.134;2022-12-13T06:55:06;100463.25;;;22.15;23.64
74573;BME280;63071;51.526;-0.134;2022-12-13T06:57:32;100464.75;;;22.13;23.91
74573;BME280;63071;51.526;-0.134;2022-12-13T06:59:59;100477.31;;;22.12;24.20
74573;BME280;63071;51.526;-0.134;2022-12-13T07:02:24;100472.75;;;22.13;23.95
74573;BME280;63071;51.526;-0.134;2022-12-13T07:04:50;100481.13;;;22.15;23.73
74573;BME280;63071;51.526;-0.134;2022-12-13T07:07:15;100468.19;;;22.13;24.07
74573;BME280;63071;51.526;-0.134;2022-12-13T07:09:41;100470.09;;;22.13;23.63
74573;BME280;63071;51.526;-0.134;2022-12-13T07:12:07;100461.34;;;22.12;24.05
74573;BME280;63071;51.526;-0.134;2022-12-13T07:14:32;100463.59;;;22.10;23.48
74573;BME280;63071;51.526;-0.134;2022-12-13T07:16:58;100459.81;;;22.11;24.23
74573;BME280;63071;51.526;-0.134;2022-12-13T07:19:23;100466.66;;;22.12;23.80
74573;BME280;63071;51.526;-0.134;2022-12-13T07:21:49;100460.56;;;22.08;23.66
74573;BME280;63071;51.526;-0.134;2022-12-13T07:24:14;100462.06;;;22.09;23.48
74573;BME280;63071;51.526;-0.134;2022-12-13T07:26:39;100464.72;;;22.09;23.51
74573;BME280;63071;51.526;-0.134;2022-12-13T07:29:05;100464.00;;;22.12;24.08
74573;BME280;63071;51.526;-0.134;2022-12-13T07:31:33;100457.56;;;22.17;24.91
74573;BME280;63071;51.526;-0.134;2022-12-13T07:33:59;100468.59;;;22.19;24.28
74573;BME280;63071;51.526;-0.134;2022-12-13T07:36:25;100462.13;;;22.16;24.52
74573;BME280;63071;51.526;-0.134;2022-12-13T07:38:52;100465.19;;;22.18;24.29
74573;BME280;63071;51.526;-0.134;2022-12-13T07:41:20;100459.88;;;22.18;24.18
74573;BME280;63071;51.526;-0.134;2022-12-13T07:43:45;100463.28;;;22.19;23.65
74573;BME280;63071;51.526;-0.134;2022-12-13T07:46:12;100476.59;;;22.19;24.09
74573;BME280;63071;51.526;-0.134;2022-12-13T07:48:37;100477.34;;;22.19;23.70
74573;BME280;63071;51.526;-0.134;2022-12-13T07:51:06;100476.22;;;22.20;23.42
74573;BME280;63071;51.526;-0.134;2022-12-13T07:53:33;100480.00;;;22.19;23.73
74573;BME280;63071;51.526;-0.134;2022-12-13T07:56:07;100472.78;;;22.20;24.01
74573;BME280;63071;51.526;-0.134;2022-12-13T07:58:34;100475.84;;;22.18;24.17
74573;BME280;63071;51.526;-0.134;2022-12-13T08:01:02;100481.91;;;22.19;23.45
74573;BME280;63071;51.526;-0.134;2022-12-13T08:03:28;100488.75;;;22.20;24.10
74573;BME280;63071;51.526;-0.134;2022-12-13T08:06:03;100491.81;;;22.18;23.63
74573;BME280;63071;51.526;-0.134;2022-12-13T08:08:29;100494.84;;;22.17;24.17
74573;BME280;63071;51.526;-0.134;2022-12-13T08:10:54;100494.06;;;22.16;23.85
74573;BME280;63071;51.526;-0.134;2022-12-13T08:13:24;100497.09;;;22.15;23.85
74573;BME280;63071;51.526;-0.134;2022-12-13T08:15:49;100498.63;;;22.16;23.48
74573;BME280;63071;51.526;-0.134;2022-12-13T08:18:15;100497.09;;;22.15;24.17
74573;BME280;63071;51.526;-0.134;2022-12-13T08:20:40;100484.53;;;22.15;24.14
74573;BME280;63071;51.526;-0.134;2022-12-13T08:23:06;100482.66;;;22.16;23.50
74573;BME280;63071;51.526;-0.134;2022-12-13T08:25:31;100478.09;;;22.16;23.64
74573;BME280;63071;51.526;-0.134;2022-12-13T08:27:56;100474.66;;;22.16;24.21
74573;BME280;63071;51.526;-0.134;2022-12-13T08:30:22;100478.88;;;22.17;23.96
74573;BME280;63071;51.526;-0.134;2022-12-13T08:32:49;100472.00;;;22.16;23.89
74573;BME280;63071;51.526;-0.134;2022-12-13T08:35:15;100468.19;;;22.13;23.71
74573;BME280;63071;51.526;-0.134;2022-12-13T08:37:40;100475.41;;;22.13;23.87
74573;BME280;63071;51.526;-0.134;2022-12-13T08:40:06;100480.72;;;22.13;23.74
74573;BME280;63071;51.526;-0.134;2022-12-13T08:42:32;100475.41;;;22.13;24.28
74573;BME280;63071;51.526;-0.134;2022-12-13T08:44:57;100468.94;;;22.14;23.40
74573;BME280;63071;51.526;-0.134;2022-12-13T08:47:24;100476.56;;;22.15;24.27
74573;BME280;63071;51.526;-0.134;2022-12-13T08:49:53;100479.22;;;22.15;23.94
74573;BME280;63071;51.526;-0.134;2022-12-13T08:52:21;100465.91;;;22.15;23.41
74573;BME280;63071;51.526;-0.134;2022-12-13T08:54:47;100463.66;;;22.17;23.76
74573;BME280;63071;51.526;-0.134;2022-12-13T08:57:12;100461.00;;;22.17;24.09
74573;BME280;63071;51.526;-0.134;2022-12-13T08:59:38;100472.03;;;22.19;23.60
74573;BME280;63071;51.526;-0.134;2022-12-13T09:02:03;100459.84;;;22.15;24.27
74573;BME280;63071;51.526;-0.134;2022-12-13T09:04:29;100462.47;;;22.11;23.68
74573;BME280;63071;51.526;-0.134;2022-12-13T09:06:54;100457.88;;;22.08;24.50
74573;BME280;63071;51.526;-0.134;2022-12-13T09:09:19;100456.75;;;22.09;24.07
74573;BME280;63071;51.526;-0.134;2022-12-13T09:11:45;100451.41;;;22.09;24.25
74573;BME280;63071;51.526;-0.134;2022-12-13T09:14:11;100457.50;;;22.06;24.14
74573;BME280;63071;51.526;-0.134;2022-12-13T09:16:37;100461.31;;;22.09;24.22
74573;BME280;63071;51.526;-0.134;2022-12-13T09:19:05;100468.94;;;22.10;23.93
74573;BME280;63071;51.526;-0.134;2022-12-13T09:21:30;100464.38;;;22.11;23.96
74573;BME280;63071;51.526;-0.134;2022-12-13T09:23:56;100449.16;;;22.11;23.95
74573;BME280;63071;51.526;-0.134;2022-12-13T09:26:22;100464.00;;;22.12;24.38
74573;BME280;63071;51.526;-0.134;2022-12-13T09:28:48;100457.53;;;22.13;24.57
74573;BME280;63071;51.526;-0.134;2022-12-13T09:31:16;100452.22;;;22.13;23.81
74573;BME280;63071;51.526;-0.134;2022-12-13T09:33:43;100459.06;;;22.14;24.26
74573;BME280;63071;51.526;-0.134;2022-12-13T09:36:13;100449.56;;;22.13;24.06
74573;BME280;63071;51.526;-0.134;2022-12-13T09:38:39;100453.75;;;22.14;24.48
74573;BME280;63071;51.526;-0.134;2022-12-13T09:43:42;100452.97;;;22.14;24.05
74573;BME280;63071;51.526;-0.134;2022-12-13T09:47:00;100447.28;;;22.15;23.93
74573;BME280;63071;51.526;-0.134;2022-12-13T09:49:13;100431.31;;;22.15;24.17
74573;BME280;63071;51.526;-0.134;2022-12-13T09:51:40;100432.84;;;22.16;24.13
74573;BME280;63071;51.526;-0.134;2022-12-13T09:54:06;100445.38;;;22.16;24.10
74573;BME280;63071;51.526;-0.134;2022-12-13T09:56:31;100442.34;;;22.17;24.74
74573;BME280;63071;51.526;-0.134;2022-12-13T09:58:57;100441.59;;;22.17;24.30
74573;BME280;63071;51.526;-0.134;2022-12-13T10:01:24;100443.09;;;22.18;24.03
74573;BME280;63071;51.526;-0.134;2022-12-13T10:03:53;100443.50;;;22.20;24.21
74573;BME280;63071;51.526;-0.134;2022-12-13T10:06:24;100442.00;;;22.19;24.27
74573;BME280;63071;51.526;-0.134;2022-12-13T10:08:58;100441.22;;;22.18;24.19
74573;BME280;63071;51.526;-0.134;2022-12-13T10:11:26;100432.84;;;22.20;24.05
74573;BME280;63071;51.526;-0.134;2022-12-13T10:14:04;100434.75;;;22.19;24.13
74573;BME280;63071;51.526;-0.134;2022-12-13T10:19:02;100419.19;;;22.21;24.19
74573;BME280;63071;51.526;-0.134;2022-12-13T10:21:41;100421.09;;;22.21;24.22
74573;BME280;63071;51.526;-0.134;2022-12-13T10:26:50;100412.34;;;22.20;24.10
74573;BME280;63071;51.526;-0.134;2022-12-13T10:29:16;100407.03;;;22.20;24.20
74573;BME280;63071;51.526;-0.134;2022-12-13T10:31:48;100406.25;;;22.20;24.10
74573;BME280;63071;51.526;-0.134;2022-12-13T10:34:35;100402.44;;;22.21;24.75
74573;BME280;63071;51.526;-0.134;2022-12-13T10:39:46;100396.78;;;22.23;24.15
74573;BME280;63071;51.526;-0.134;2022-12-13T10:42:16;100391.09;;;22.28;24.74
74573;BME280;63071;51.526;-0.134;2022-12-13T10:44:43;100374.78;;;22.29;23.90
74573;BME280;63071;51.526;-0.134;2022-12-13T10:49:55;100371.38;;;22.36;24.06
74573;BME280;63071;51.526;-0.134;2022-12-13T10:52:28;100366.44;;;22.38;23.94
74573;BME280;63071;51.526;-0.134;2022-12-13T10:55:03;100358.84;;;22.40;24.31
74573;BME280;63071;51.526;-0.134;2022-12-13T10:57:30;100360.38;;;22.41;24.32
74573;BME280;63071;51.526;-0.134;2022-12-13T10:59:57;100361.13;;;22.42;24.54
74573;BME280;63071;51.526;-0.134;2022-12-13T11:04:54;100345.53;;;22.40;23.92
74573;BME280;63071;51.526;-0.134;2022-12-13T11:07:23;100339.06;;;22.41;24.45
74573;BME280;63071;51.526;-0.134;2022-12-13T11:09:49;100341.38;;;22.43;24.03
74573;BME280;63071;51.526;-0.134;2022-12-13T11:12:21;100351.25;;;22.42;23.89
74573;BME280;63071;51.526;-0.134;2022-12-13T11:14:58;100340.22;;;22.44;24.18
74573;BME280;63071;51.526;-0.134;2022-12-13T11:17:29;100338.72;;;22.43;23.79
74573;BME280;63071;51.526;-0.134;2022-12-13T11:19:59;100332.22;;;22.44;24.23
74573;BME280;63071;51.526;-0.134;2022-12-13T11:22:29;100328.06;;;22.43;24.41
74573;BME280;63071;51.526;-0.134;2022-12-13T11:30:09;100333.38;;;22.46;23.55
74573;BME280;63071;51.526;-0.134;2022-12-13T11:41:56;100327.66;;;22.44;24.20
74573;BME280;63071;51.526;-0.134;2022-12-13T11:44:38;100321.97;;;22.46;24.16
74573;BME280;63071;51.526;-0.134;2022-12-13T11:47:18;100320.47;;;22.45;24.07
74573;BME280;63071;51.526;-0.134;2022-12-13T11:49:48;100311.69;;;22.44;23.55
74573;BME280;63071;51.526;-0.134;2022-12-13T11:52:26;100306.34;;;22.37;23.99
74573;BME280;63071;51.526;-0.134;2022-12-13T11:55:17;100310.19;;;22.43;23.52
74573;BME280;63071;51.526;-0.134;2022-12-13T12:00:36;100306.34;;;22.44;23.47
74573;BME280;63071;51.526;-0.134;2022-12-13T12:03:14;100300.28;;;22.47;23.45
74573;BME280;63071;51.526;-0.134;2022-12-13T12:05:46;100298.38;;;22.48;23.45
74573;BME280;63071;51.526;-0.134;2022-12-13T12:11:06;100281.63;;;22.44;23.72
74573;BME280;63071;51.526;-0.134;2022-12-13T12:13:41;100280.50;;;22.45;23.34
74573;BME280;63071;51.526;-0.134;2022-12-13T12:18:52;100278.25;;;22.47;23.26
74573;BME280;63071;51.526;-0.134;2022-12-13T12:21:27;100275.97;;;22.49;23.18
74573;BME280;63071;51.526;-0.134;2022-12-13T12:29:42;100267.56;;;22.50;23.61
74573;BME280;63071;51.526;-0.134;2022-12-13T12:32:31;100267.56;;;22.50;23.45
74573;BME280;63071;51.526;-0.134;2022-12-13T12:37:52;100256.16;;;22.50;23.50
74573;BME280;63071;51.526;-0.134;2022-12-13T12:46:16;100246.25;;;22.43;23.12
74573;BME280;63071;51.526;-0.134;2022-12-13T12:52:05;100246.25;;;22.39;23.11
74573;BME280;63071;51.526;-0.134;2022-12-13T12:55:02;100231.41;;;22.35;23.37
74573;BME280;63071;51.526;-0.134;2022-12-13T12:58:07;100236.75;;;22.38;24.07
74573;BME280;63071;51.526;-0.134;2022-12-13T13:03:35;100228.00;;;22.42;24.10
74573;BME280;63071;51.526;-0.134;2022-12-13T13:06:11;100220.38;;;22.44;23.25
74573;BME280;63071;51.526;-0.134;2022-12-13T13:09:00;100223.06;;;22.44;23.12
74573;BME280;63071;51.526;-0.134;2022-12-13T13:11:39;100223.81;;;22.44;23.71
74573;BME280;63071;51.526;-0.134;2022-12-13T13:16:53;100218.88;;;22.46;23.51
74573;BME280;63071;51.526;-0.134;2022-12-13T13:21:48;100213.56;;;22.50;23.18
74573;BME280;63071;51.526;-0.134;2022-12-13T13:24:26;100209.78;;;22.51;23.80
74573;BME280;63071;51.526;-0.134;2022-12-13T13:26:55;100206.72;;;22.52;23.92
74573;BME280;63071;51.526;-0.134;2022-12-13T13:34:36;100201.38;;;22.56;23.66
74573;BME280;63071;51.526;-0.134;2022-12-13T13:42:19;100197.19;;;22.58;23.40
74573;BME280;63071;51.526;-0.134;2022-12-13T13:55:40;100185.41;;;22.67;23.87
74573;BME280;63071;51.526;-0.134;2022-12-13T13:58:41;100178.97;;;22.68;23.47
74573;BME280;63071;51.526;-0.134;2022-12-13T14:29:21;100163.00;;;22.71;23.66
74573;BME280;63071;51.526;-0.134;2022-12-13T14:31:48;100166.03;;;22.73;23.13
74573;BME280;63071;51.526;-0.134;2022-12-13T14:34:28;100167.16;;;22.76;23.55
74573;BME280;63071;51.526;-0.134;2022-12-13T14:39:21;100170.22;;;22.78;23.88
74573;BME280;63071;51.526;-0.134;2022-12-13T14:41:50;100169.06;;;22.75;23.38
74573;BME280;63071;51.526;-0.134;2022-12-13T14:44:21;100170.22;;;22.78;23.25
74573;BME280;63071;51.526;-0.134;2022-12-13T14:47:13;100164.13;;;22.81;23.97
74573;BME280;63071;51.526;-0.134;2022-12-13T14:49:42;100165.66;;;22.82;23.46
74573;BME280;63071;51.526;-0.134;2022-12-13T14:52:18;100169.84;;;22.83;23.72
74573;BME280;63071;51.526;-0.134;2022-12-13T14:54:51;100166.41;;;22.86;23.43
74573;BME280;63071;51.526;-0.134;2022-12-13T14:57:21;100164.50;;;22.87;23.22
74573;BME280;63071;51.526;-0.134;2022-12-13T14:59:48;100169.44;;;22.88;23.54
74573;BME280;63071;51.526;-0.134;2022-12-13T15:02:23;100167.53;;;22.89;23.51
74573;BME280;63071;51.526;-0.134;2022-12-13T15:04:59;100161.84;;;22.90;23.95
74573;BME280;63071;51.526;-0.134;2022-12-13T15:09:57;100170.22;;;22.92;23.66
74573;BME280;63071;51.526;-0.134;2022-12-13T15:12:24;100167.53;;;22.92;23.20
74573;BME280;63071;51.526;-0.134;2022-12-13T15:14:57;100175.16;;;22.94;23.73
74573;BME280;63071;51.526;-0.134;2022-12-13T15:17:35;100174.41;;;22.93;23.64
74573;BME280;63071;51.526;-0.134;2022-12-13T15:20:25;100183.91;;;22.98;23.88